Time;durP1;ratioP1;P1;durP2;ratioP2;P2;SDS_P1;SDS_P2;PMS_P1;PMS_P2;Temp;Humidity;BMP_temperature;BMP_pressure;BME280_temperature;BME280_humidity;BME280_pressure;Samples;Min_cycle;Max_cycle;Signal;HPM_P1;HPM_P2
2022/11/15 00:00:55;;;;;;;27.10;12.83;;;8.20;99.90;;;;;;5041454;28;20200;-53
2022/11/15 00:03:24;;;;;;;26.70;15.30;;;8.20;99.90;;;;;;5041330;28;20301;-52
2022/11/15 00:05:52;;;;;;;25.40;14.50;;;8.30;99.90;;;;;;5041487;28;20234;-53
2022/11/15 00:08:19;;;;;;;30.10;14.40;;;8.30;99.90;;;;;;5041526;28;20244;-54
2022/11/15 00:10:56;;;;;;;33.53;15.37;;;8.30;99.90;;;;;;5041243;28;20228;-53
2022/11/15 00:13:23;;;;;;;27.13;14.30;;;8.20;99.90;;;;;;5040523;28;20211;-55
2022/11/15 00:15:50;;;;;;;25.87;14.77;;;8.10;99.90;;;;;;5040027;28;20212;-53
2022/11/15 00:18:17;;;;;;;28.40;13.70;;;8.20;99.90;;;;;;5039768;28;20203;-53
2022/11/15 00:20:44;;;;;;;24.63;14.80;;;8.30;99.90;;;;;;5038500;28;20655;-53
2022/11/15 00:23:11;;;;;;;26.87;14.80;;;8.30;99.90;;;;;;5040879;28;20222;-53
2022/11/15 00:25:38;;;;;;;26.17;14.73;;;8.40;99.90;;;;;;5041439;28;20280;-53
2022/11/15 00:28:05;;;;;;;27.90;14.03;;;8.40;99.90;;;;;;5039145;28;20227;-53
2022/11/15 00:30:32;;;;;;;26.13;14.60;;;8.50;99.90;;;;;;5040447;28;20578;-54
2022/11/15 00:33:03;;;;;;;30.40;14.70;;;8.40;99.90;;;;;;5040692;28;20202;-52
2022/11/15 00:35:32;;;;;;;28.93;14.30;;;8.50;99.90;;;;;;5039676;28;20224;-53
2022/11/15 00:37:59;;;;;;;25.67;14.10;;;8.60;99.90;;;;;;5039644;28;20291;-51
2022/11/15 00:40:27;;;;;;;22.17;14.03;;;8.50;99.90;;;;;;5041113;28;20647;-55
2022/11/15 00:42:53;;;;;;;24.30;13.37;;;8.60;99.90;;;;;;5039262;28;20200;-53
2022/11/15 00:45:20;;;;;;;23.43;14.30;;;8.60;99.90;;;;;;5039938;28;20298;-54
2022/11/15 00:47:47;;;;;;;26.03;14.77;;;8.70;99.90;;;;;;5039983;28;20379;-53
2022/11/15 00:50:14;;;;;;;23.10;14.13;;;8.70;99.90;;;;;;5036818;28;20239;-59
2022/11/15 00:52:41;;;;;;;24.23;13.87;;;8.70;99.90;;;;;;5039354;28;20216;-54
2022/11/15 00:55:14;;;;;;;24.63;13.93;;;8.80;99.90;;;;;;5038396;28;20222;-57
2022/11/15 00:57:41;;;;;;;24.63;13.77;;;8.80;99.90;;;;;;5037029;28;20198;-52
2022/11/15 01:00:09;;;;;;;22.67;13.93;;;8.80;99.90;;;;;;5036842;28;20266;-54
2022/11/15 01:02:36;;;;;;;24.57;13.87;;;8.90;99.90;;;;;;5038806;28;20685;-52
2022/11/15 01:05:03;;;;;;;24.37;13.57;;;8.80;99.90;;;;;;5041052;28;20663;-52
2022/11/15 01:07:30;;;;;;;26.77;13.33;;;8.80;99.90;;;;;;5038713;28;20234;-51
2022/11/15 01:09:57;;;;;;;22.03;13.53;;;8.90;99.90;;;;;;5040307;28;20243;-53
2022/11/15 01:12:24;;;;;;;23.63;13.43;;;8.90;99.90;;;;;;5035585;28;20205;-53
2022/11/15 01:14:50;;;;;;;22.53;12.70;;;9.00;99.90;;;;;;5021245;28;20226;-52
2022/11/15 01:17:17;;;;;;;21.00;13.17;;;9.00;99.90;;;;;;5038312;28;20791;-53
2022/11/15 01:19:44;;;;;;;22.77;13.23;;;9.00;99.90;;;;;;5040194;28;20776;-55
2022/11/15 01:22:11;;;;;;;21.57;13.23;;;9.00;99.90;;;;;;5040168;28;20200;-53
2022/11/15 01:24:37;;;;;;;21.77;12.77;;;9.20;99.90;;;;;;5041322;28;20292;-54
2022/11/15 01:27:04;;;;;;;20.33;12.80;;;9.20;99.90;;;;;;5040041;28;20208;-52
2022/11/15 01:29:31;;;;;;;21.97;12.87;;;9.20;99.90;;;;;;5037990;28;20208;-54
2022/11/15 01:31:58;;;;;;;22.47;12.53;;;9.20;99.90;;;;;;5040037;28;20215;-53
2022/11/15 01:34:25;;;;;;;19.90;12.90;;;9.30;99.90;;;;;;5037751;28;20244;-51
2022/11/15 01:36:51;;;;;;;21.00;13.83;;;9.30;99.90;;;;;;5040446;28;20207;-53
2022/11/15 01:39:18;;;;;;;23.60;14.17;;;9.30;99.90;;;;;;5038011;28;20203;-53
2022/11/15 01:41:45;;;;;;;23.20;13.80;;;9.40;99.90;;;;;;5039561;28;20716;-56
2022/11/15 01:44:30;;;;;;;21.67;13.23;;;9.40;99.90;;;;;;5037509;28;20993;-53
2022/11/15 01:47:04;;;;;;;22.63;12.43;;;9.30;99.90;;;;;;5036219;28;20260;-58
2022/11/15 01:49:33;;;;;;;20.53;13.27;;;9.40;99.90;;;;;;5038858;28;20562;-53
2022/11/15 01:52:03;;;;;;;20.57;13.67;;;9.40;99.90;;;;;;5039259;28;20243;-51
2022/11/15 01:54:30;;;;;;;23.33;13.23;;;9.40;99.90;;;;;;5039373;28;20595;-58
2022/11/15 01:57:03;;;;;;;19.33;13.17;;;9.50;99.90;;;;;;5039548;28;20197;-53
2022/11/15 01:59:30;;;;;;;23.93;13.33;;;9.50;99.90;;;;;;5037353;28;20231;-52
2022/11/15 02:01:57;;;;;;;22.00;13.33;;;9.50;99.90;;;;;;5039669;28;20200;-53
2022/11/15 02:04:27;;;;;;;19.00;12.83;;;9.60;99.90;;;;;;5039411;28;20207;-53
2022/11/15 02:06:54;;;;;;;22.97;12.67;;;9.60;99.90;;;;;;5039130;28;20231;-52
2022/11/15 02:09:22;;;;;;;25.27;14.00;;;9.70;99.90;;;;;;5040516;28;20363;-52
2022/11/15 02:11:51;;;;;;;20.40;13.53;;;9.80;99.90;;;;;;5040405;28;20766;-53
2022/11/15 02:14:21;;;;;;;20.20;12.97;;;9.80;99.90;;;;;;5038639;28;20771;-53
2022/11/15 02:16:50;;;;;;;23.77;12.73;;;9.90;99.90;;;;;;5038883;28;20613;-51
2022/11/15 02:19:32;;;;;;;20.63;13.53;;;9.80;99.90;;;;;;5036563;28;20197;-52
2022/11/15 02:22:33;;;;;;;22.73;13.90;;;9.80;99.90;;;;;;5034559;28;20247;-52
2022/11/15 02:25:19;;;;;;;20.37;13.13;;;9.90;99.90;;;;;;5037893;28;20207;-53
2022/11/15 02:28:04;;;;;;;20.87;13.37;;;9.90;99.90;;;;;;5037599;28;20235;-52
2022/11/15 02:30:42;;;;;;;19.83;13.67;;;10.00;99.90;;;;;;5037450;28;20207;-55
2022/11/15 02:33:28;;;;;;;21.00;13.00;;;9.90;99.90;;;;;;5037499;28;20376;-52
2022/11/15 02:36:01;;;;;;;21.03;13.23;;;10.00;99.90;;;;;;5037994;28;20683;-52
2022/11/15 02:38:31;;;;;;;17.20;12.10;;;10.00;99.90;;;;;;5035646;28;20655;-55
2022/11/15 02:41:19;;;;;;;19.63;13.50;;;10.00;99.90;;;;;;5038095;28;20208;-52
2022/11/15 02:43:56;;;;;;;22.33;14.90;;;10.10;99.90;;;;;;5038680;28;20685;-52
2022/11/15 02:49:21;;;;;;;17.83;13.03;;;10.20;99.90;;;;;;5035931;28;20694;-52
2022/11/15 02:51:50;;;;;;;19.70;12.93;;;10.20;99.90;;;;;;5036999;28;20800;-53
2022/11/15 02:54:22;;;;;;;23.13;13.67;;;10.20;99.90;;;;;;5037710;28;20296;-53
2022/11/15 02:56:52;;;;;;;23.77;13.53;;;10.20;99.90;;;;;;5038272;28;20201;-52
2022/11/15 02:59:27;;;;;;;23.00;13.90;;;10.30;99.90;;;;;;5037361;28;20205;-52
2022/11/15 03:02:19;;;;;;;22.43;13.50;;;10.30;99.90;;;;;;5038554;28;20280;-53
2022/11/15 03:05:30;;;;;;;25.23;14.47;;;10.30;99.90;;;;;;5038829;28;20604;-54
2022/11/15 03:08:46;;;;;;;20.30;13.57;;;10.40;99.90;;;;;;5036446;28;20649;-53
2022/11/15 03:11:19;;;;;;;22.57;13.30;;;10.40;99.90;;;;;;5013786;28;20266;-52
2022/11/15 03:14:00;;;;;;;24.80;14.37;;;10.40;99.90;;;;;;5038773;28;20756;-59
2022/11/15 03:16:29;;;;;;;21.70;13.87;;;10.40;99.90;;;;;;5038500;28;20235;-52
2022/11/15 03:19:05;;;;;;;20.50;13.67;;;10.50;99.90;;;;;;5039150;28;20201;-52
2022/11/15 03:21:33;;;;;;;21.63;13.20;;;10.50;99.90;;;;;;5039834;28;20257;-51
2022/11/15 03:24:05;;;;;;;25.60;14.57;;;10.50;99.90;;;;;;5034182;28;20201;-53
2022/11/15 03:26:34;;;;;;;22.33;14.37;;;10.60;99.90;;;;;;5039422;28;20209;-52
2022/11/15 03:29:08;;;;;;;22.83;14.07;;;10.60;99.90;;;;;;5037888;28;20534;-52
2022/11/15 03:31:48;;;;;;;22.83;13.70;;;10.60;99.90;;;;;;5039076;28;20211;-51
2022/11/15 03:34:27;;;;;;;19.77;13.70;;;10.60;99.90;;;;;;5031580;28;20203;-53
2022/11/15 03:36:54;;;;;;;22.43;14.17;;;10.60;99.90;;;;;;5039701;28;20220;-53
2022/11/15 03:39:22;;;;;;;23.60;14.90;;;10.70;99.90;;;;;;5040625;28;20211;-51
2022/11/15 03:42:11;;;;;;;23.50;15.13;;;10.80;99.90;;;;;;5042199;28;20196;-52
2022/11/15 03:45:13;;;;;;;21.10;14.40;;;10.80;99.90;;;;;;5039400;28;20335;-52
2022/11/15 03:47:45;;;;;;;21.87;14.60;;;10.80;99.90;;;;;;5040170;28;21176;-52
2022/11/15 03:50:15;;;;;;;21.57;14.57;;;10.80;99.90;;;;;;5053852;28;21004;-54
2022/11/15 03:52:45;;;;;;;22.10;14.73;;;10.80;99.90;;;;;;5041274;28;20286;-50
2022/11/15 03:55:16;;;;;;;26.60;15.37;;;10.80;99.90;;;;;;5040423;28;20259;-52
2022/11/15 03:57:43;;;;;;;23.43;15.13;;;10.90;99.90;;;;;;5034426;28;20213;-52
2022/11/15 04:00:11;;;;;;;22.00;14.83;;;10.80;99.90;;;;;;5036590;28;20287;-50
2022/11/15 04:02:37;;;;;;;24.13;14.70;;;10.90;99.90;;;;;;5039127;28;20216;-51
2022/11/15 04:05:04;;;;;;;24.10;14.90;;;10.90;99.90;;;;;;5033314;28;20736;-53
2022/11/15 04:07:31;;;;;;;23.43;15.30;;;10.90;99.90;;;;;;5034609;28;20201;-53
2022/11/15 04:10:05;;;;;;;24.73;15.63;;;10.90;99.90;;;;;;5039095;28;20319;-51
2022/11/15 04:12:34;;;;;;;24.77;14.50;;;10.90;99.90;;;;;;5039385;28;20234;-55
2022/11/15 04:15:10;;;;;;;22.80;14.93;;;11.00;99.90;;;;;;5039713;28;20303;-52
2022/11/15 04:17:57;;;;;;;22.23;14.63;;;10.90;99.90;;;;;;5038950;28;20236;-53
2022/11/15 04:26:14;;;;;;;23.27;13.97;;;11.00;99.90;;;;;;5041365;28;20660;-55
2022/11/15 04:31:27;;;;;;;21.20;14.17;;;11.00;99.90;;;;;;5038880;28;20201;-55
2022/11/15 04:33:55;;;;;;;22.23;15.10;;;11.00;99.90;;;;;;5039955;28;20289;-52
2022/11/15 04:39:07;;;;;;;22.07;14.60;;;11.10;99.90;;;;;;5037598;28;20631;-55
2022/11/15 04:41:34;;;;;;;23.97;15.00;;;11.00;99.90;;;;;;5038495;28;20668;-53
2022/11/15 04:44:01;;;;;;;25.17;14.40;;;11.10;99.90;;;;;;5037326;28;20285;-52
2022/11/15 04:46:28;;;;;;;23.53;14.97;;;11.10;99.90;;;;;;5037422;28;20785;-54
2022/11/15 04:48:55;;;;;;;26.23;15.63;;;11.10;99.90;;;;;;5037332;28;20244;-55
2022/11/15 04:51:25;;;;;;;23.60;14.87;;;11.20;99.90;;;;;;5066129;28;20240;-57
2022/11/15 04:53:52;;;;;;;26.33;15.23;;;11.10;99.90;;;;;;5038746;28;20713;-52
2022/11/15 04:56:19;;;;;;;28.03;16.03;;;11.20;99.90;;;;;;5038900;28;20223;-52
2022/11/15 04:58:49;;;;;;;23.00;15.23;;;11.20;99.90;;;;;;5036926;28;20223;-52
2022/11/15 05:01:17;;;;;;;25.57;15.50;;;11.10;99.90;;;;;;5038649;28;20662;-53
2022/11/15 05:06:30;;;;;;;26.30;14.67;;;11.10;99.90;;;;;;5038471;28;20216;-53
2022/11/15 05:08:58;;;;;;;21.83;14.40;;;11.10;99.90;;;;;;5037255;28;20295;-53
2022/11/15 05:11:25;;;;;;;22.90;14.93;;;11.20;99.90;;;;;;5036679;28;20229;-53
2022/11/15 05:13:52;;;;;;;24.20;14.57;;;11.10;99.90;;;;;;5036862;28;20614;-53
2022/11/15 05:16:19;;;;;;;25.47;14.63;;;11.20;99.90;;;;;;5039659;28;20238;-50
2022/11/15 05:18:46;;;;;;;22.50;14.33;;;11.20;99.90;;;;;;5039567;28;20349;-52
2022/11/15 05:21:14;;;;;;;21.57;14.17;;;11.20;99.90;;;;;;5040030;28;20208;-52
2022/11/15 05:23:41;;;;;;;25.77;14.33;;;11.20;99.90;;;;;;5040590;28;20202;-52
2022/11/15 05:26:09;;;;;;;23.30;14.80;;;11.20;99.90;;;;;;5039946;28;20212;-52
2022/11/15 05:28:36;;;;;;;22.23;14.77;;;11.20;99.90;;;;;;5040259;28;20227;-51
2022/11/15 05:31:14;;;;;;;24.10;14.70;;;11.30;99.90;;;;;;5037824;28;20676;-54
2022/11/15 05:33:43;;;;;;;22.83;15.27;;;11.30;99.90;;;;;;5040429;28;20229;-52
2022/11/15 05:36:12;;;;;;;24.97;14.10;;;11.30;99.90;;;;;;5040650;28;20216;-54
2022/11/15 05:38:39;;;;;;;25.97;14.63;;;11.30;99.90;;;;;;5039519;28;20216;-54
2022/11/15 05:41:06;;;;;;;20.13;13.70;;;11.30;99.90;;;;;;5039297;28;20197;-53
2022/11/15 05:43:36;;;;;;;24.77;15.10;;;11.30;99.90;;;;;;5037890;28;20203;-52
2022/11/15 05:46:04;;;;;;;21.40;14.53;;;11.40;99.90;;;;;;5038427;28;20248;-53
2022/11/15 05:48:35;;;;;;;23.93;13.23;;;11.30;99.90;;;;;;5069285;28;20218;-53
2022/11/15 05:51:04;;;;;;;26.43;13.93;;;11.30;99.90;;;;;;5040551;28;20305;-55
2022/11/15 05:53:31;;;;;;;23.10;14.47;;;11.30;99.90;;;;;;5038273;28;20669;-53
2022/11/15 05:55:59;;;;;;;23.80;14.00;;;11.40;99.90;;;;;;5039203;28;20226;-55
2022/11/15 05:58:26;;;;;;;24.73;13.90;;;11.30;99.90;;;;;;5036215;28;20287;-53
2022/11/15 06:00:54;;;;;;;24.83;14.83;;;11.30;99.90;;;;;;5037305;28;20218;-54
2022/11/15 06:03:21;;;;;;;24.13;13.17;;;11.30;99.90;;;;;;5039315;28;20220;-53
2022/11/15 06:05:48;;;;;;;27.83;14.33;;;11.30;99.90;;;;;;5039809;28;20216;-53
2022/11/15 06:08:14;;;;;;;19.90;12.73;;;11.30;99.90;;;;;;5038695;28;20495;-52
2022/11/15 06:10:41;;;;;;;24.23;13.03;;;11.30;99.90;;;;;;5046201;28;20241;-52
2022/11/15 06:13:08;;;;;;;22.60;12.73;;;11.30;99.90;;;;;;5039251;28;20204;-53
2022/11/15 06:15:35;;;;;;;20.13;13.70;;;11.20;99.90;;;;;;5040103;28;20227;-52
2022/11/15 06:18:02;;;;;;;19.70;12.73;;;11.20;99.90;;;;;;5038442;28;20250;-55
2022/11/15 06:20:30;;;;;;;20.37;13.03;;;11.30;99.90;;;;;;5038442;28;20195;-54
2022/11/15 06:22:58;;;;;;;23.30;13.07;;;11.30;99.90;;;;;;5035540;28;20235;-52
2022/11/15 06:25:26;;;;;;;23.13;12.30;;;11.20;99.90;;;;;;5039201;28;20210;-52
2022/11/15 06:27:57;;;;;;;19.50;12.87;;;11.30;99.90;;;;;;5036663;28;20203;-53
2022/11/15 06:30:25;;;;;;;21.73;13.97;;;11.30;99.90;;;;;;5036979;28;20732;-53
2022/11/15 06:32:59;;;;;;;21.10;13.73;;;11.30;99.90;;;;;;5032870;28;20537;-52
2022/11/15 06:35:25;;;;;;;20.47;13.07;;;11.20;99.90;;;;;;5036886;28;20786;-52
2022/11/15 06:37:52;;;;;;;19.43;12.73;;;11.20;99.90;;;;;;5038924;28;20233;-53
2022/11/15 06:40:19;;;;;;;20.10;12.90;;;11.20;99.90;;;;;;5039267;28;20234;-52
2022/11/15 06:42:46;;;;;;;19.90;12.33;;;11.20;99.90;;;;;;5036059;28;20203;-54
2022/11/15 06:45:13;;;;;;;21.50;12.77;;;11.20;99.90;;;;;;5037813;28;20206;-53
2022/11/15 06:47:46;;;;;;;18.43;12.60;;;11.20;99.90;;;;;;5038634;28;20243;-54
2022/11/15 06:50:13;;;;;;;22.80;13.20;;;11.20;99.90;;;;;;5039999;28;20275;-53
2022/11/15 06:52:41;;;;;;;20.37;12.37;;;11.20;99.90;;;;;;5038703;28;20203;-52
2022/11/15 06:55:08;;;;;;;19.30;12.00;;;11.20;99.90;;;;;;5039808;28;20205;-52
2022/11/15 06:57:36;;;;;;;20.07;12.53;;;11.20;99.90;;;;;;5039859;28;20199;-51
2022/11/15 07:00:06;;;;;;;18.13;11.73;;;11.20;99.90;;;;;;5038602;28;20194;-55
2022/11/15 07:02:33;;;;;;;23.37;12.30;;;11.20;99.90;;;;;;5036865;28;20563;-52
2022/11/15 07:05:00;;;;;;;18.40;11.47;;;11.20;99.90;;;;;;5038570;28;20228;-52
2022/11/15 07:07:26;;;;;;;18.23;11.60;;;11.10;99.90;;;;;;5033937;28;20209;-53
2022/11/15 07:09:53;;;;;;;17.00;11.77;;;11.20;99.90;;;;;;5036926;28;20225;-54
2022/11/15 07:12:20;;;;;;;24.70;12.23;;;11.10;99.90;;;;;;5067684;28;20199;-52
2022/11/15 07:14:47;;;;;;;17.87;11.87;;;11.10;99.90;;;;;;5034968;28;20348;-57
2022/11/15 07:17:14;;;;;;;18.87;11.87;;;11.10;99.90;;;;;;5036863;28;20231;-53
2022/11/15 07:19:40;;;;;;;16.80;12.00;;;11.10;99.90;;;;;;5034069;28;20288;-53
2022/11/15 07:22:07;;;;;;;18.20;11.60;;;11.10;99.90;;;;;;5036662;28;22380;-54
2022/11/15 07:24:34;;;;;;;18.40;10.90;;;11.10;99.90;;;;;;5036728;28;20203;-53
2022/11/15 07:27:01;;;;;;;16.37;11.07;;;11.10;99.90;;;;;;5029883;28;20595;-52
2022/11/15 07:29:28;;;;;;;18.40;11.33;;;11.10;99.90;;;;;;4675985;28;9999886;-52
2022/11/15 07:31:55;;;;;;;19.17;10.67;;;11.10;99.90;;;;;;5024930;28;20300;-59
2022/11/15 07:34:22;;;;;;;16.77;10.57;;;11.10;99.90;;;;;;5027965;28;20208;-52
2022/11/15 07:36:49;;;;;;;16.90;11.20;;;11.20;99.90;;;;;;5029401;28;20379;-53
2022/11/15 07:39:15;;;;;;;21.90;10.67;;;11.10;99.90;;;;;;5028546;28;20206;-55
2022/11/15 07:41:43;;;;;;;16.03;10.63;;;11.10;99.90;;;;;;5032220;28;20554;-52
2022/11/15 07:44:10;;;;;;;17.80;10.97;;;11.20;99.90;;;;;;5029653;28;20325;-53
2022/11/15 07:46:37;;;;;;;17.03;10.47;;;11.30;99.90;;;;;;5027649;28;20205;-54
2022/11/15 07:49:03;;;;;;;22.83;11.23;;;11.20;99.90;;;;;;5028544;28;20244;-54
2022/11/15 07:51:31;;;;;;;20.53;10.73;;;11.20;99.90;;;;;;5022566;28;20321;-65
2022/11/15 07:53:57;;;;;;;19.03;11.37;;;11.30;99.90;;;;;;5029708;28;20700;-52
2022/11/15 07:56:24;;;;;;;17.63;10.77;;;11.30;99.90;;;;;;5027966;28;20227;-53
2022/11/15 07:58:51;;;;;;;16.30;10.87;;;11.30;99.90;;;;;;5031513;28;20591;-54
2022/11/15 08:01:18;;;;;;;15.40;10.33;;;11.30;99.90;;;;;;5027211;28;20304;-55
2022/11/15 08:03:45;;;;;;;18.40;10.87;;;11.20;99.90;;;;;;5031131;28;20273;-54
2022/11/15 08:06:11;;;;;;;18.80;11.37;;;11.30;99.90;;;;;;5027707;28;20239;-54
2022/11/15 08:08:38;;;;;;;17.30;11.30;;;11.20;99.90;;;;;;5025651;28;21168;-55
2022/11/15 08:11:05;;;;;;;19.23;11.17;;;11.20;99.90;;;;;;5025023;28;20230;-53
2022/11/15 08:13:32;;;;;;;14.80;10.37;;;11.20;99.90;;;;;;5036050;28;20211;-55
2022/11/15 08:16:00;;;;;;;16.17;11.13;;;11.20;99.90;;;;;;5029223;28;20223;-54
2022/11/15 08:18:27;;;;;;;17.93;11.10;;;11.20;99.90;;;;;;5032189;28;20203;-54
2022/11/15 08:20:58;;;;;;;17.43;10.47;;;11.20;99.90;;;;;;5031037;28;20996;-54
2022/11/15 08:23:25;;;;;;;16.50;9.60;;;11.20;99.90;;;;;;5033093;28;20584;-53
2022/11/15 08:25:52;;;;;;;16.23;10.00;;;11.20;99.90;;;;;;5032232;28;20212;-55
2022/11/15 08:28:18;;;;;;;16.80;11.50;;;11.20;99.90;;;;;;5034041;28;20569;-53
2022/11/15 08:30:45;;;;;;;17.70;10.13;;;11.20;99.90;;;;;;5025860;28;20214;-55
2022/11/15 08:33:13;;;;;;;15.17;9.27;;;11.10;99.90;;;;;;5028977;28;20295;-53
2022/11/15 08:35:43;;;;;;;14.30;8.47;;;11.20;99.90;;;;;;5030856;28;20229;-52
2022/11/15 08:38:10;;;;;;;17.63;8.90;;;11.10;99.90;;;;;;5036116;28;20687;-53
2022/11/15 08:40:37;;;;;;;12.20;8.20;;;11.10;99.90;;;;;;5034722;28;20252;-54
2022/11/15 08:43:04;;;;;;;14.33;8.63;;;11.20;99.90;;;;;;5037510;28;20555;-55
2022/11/15 08:45:33;;;;;;;13.27;8.17;;;11.20;99.90;;;;;;5035415;28;20204;-55
2022/11/15 08:48:02;;;;;;;15.30;9.33;;;11.20;99.90;;;;;;5033233;28;20912;-54
2022/11/15 08:50:29;;;;;;;17.23;9.30;;;11.20;99.90;;;;;;5034921;28;20230;-54
2022/11/15 08:52:55;;;;;;;12.63;8.77;;;11.30;99.90;;;;;;5041234;28;20595;-52
2022/11/15 08:55:22;;;;;;;12.57;7.87;;;11.30;99.90;;;;;;5036032;28;20556;-54
2022/11/15 08:57:50;;;;;;;17.20;9.80;;;11.40;99.90;;;;;;5036406;28;20247;-54
2022/11/15 09:00:19;;;;;;;12.23;8.07;;;11.30;99.90;;;;;;5034506;28;20747;-54
2022/11/15 09:02:46;;;;;;;13.67;8.60;;;11.20;99.90;;;;;;5034763;28;22315;-55
2022/11/15 09:05:15;;;;;;;10.77;7.57;;;11.20;99.90;;;;;;5034499;28;20197;-54
2022/11/15 09:07:43;;;;;;;13.43;7.77;;;11.30;99.90;;;;;;5038075;28;20692;-53
2022/11/15 09:10:10;;;;;;;12.47;7.70;;;11.40;99.90;;;;;;5037511;28;20242;-53
2022/11/15 09:12:37;;;;;;;13.80;7.57;;;11.60;99.90;;;;;;5037252;28;20301;-53
2022/11/15 09:15:05;;;;;;;7.50;6.10;;;12.10;99.90;;;;;;5035781;28;21154;-56
2022/11/15 09:17:32;;;;;;;8.77;6.27;;;12.20;99.90;;;;;;5032640;28;20219;-55
2022/11/15 09:19:59;;;;;;;10.53;6.10;;;12.30;99.90;;;;;;5034330;28;20237;-54
2022/11/15 09:22:25;;;;;;;9.80;5.00;;;12.30;99.90;;;;;;5034672;28;20196;-54
2022/11/15 09:24:52;;;;;;;7.17;4.83;;;12.50;99.90;;;;;;5038151;28;20839;-52
2022/11/15 09:27:19;;;;;;;8.00;4.90;;;12.30;99.90;;;;;;5034821;28;20228;-54
2022/11/15 09:29:46;;;;;;;5.37;4.30;;;12.40;99.90;;;;;;5035562;28;20205;-52
2022/11/15 09:32:13;;;;;;;7.27;4.20;;;12.10;99.90;;;;;;5035391;28;20203;-51
2022/11/15 09:34:39;;;;;;;6.67;4.30;;;12.30;99.90;;;;;;5035946;28;20217;-52
2022/11/15 09:37:06;;;;;;;5.67;3.40;;;12.10;99.90;;;;;;5035897;28;20256;-54
2022/11/15 09:39:33;;;;;;;4.60;3.67;;;12.20;99.90;;;;;;5034567;28;20206;-54
2022/11/15 09:42:18;;;;;;;5.63;3.70;;;12.10;99.90;;;;;;5036720;28;20197;-53
2022/11/15 09:44:54;;;;;;;5.63;3.40;;;12.30;99.90;;;;;;5035623;28;20287;-53
2022/11/15 09:47:33;;;;;;;4.80;2.40;;;12.20;99.90;;;;;;5033412;28;20298;-54
2022/11/15 09:50:07;;;;;;;3.10;2.57;;;12.20;99.90;;;;;;5032705;28;20230;-53
2022/11/15 09:52:36;;;;;;;5.53;2.67;;;12.30;99.90;;;;;;5037193;28;20206;-53
2022/11/15 09:55:07;;;;;;;3.23;2.50;;;12.50;99.90;;;;;;5034232;28;20204;-55
2022/11/15 09:57:53;;;;;;;5.13;2.93;;;12.60;99.90;;;;;;5034515;28;20234;-53
2022/11/15 10:00:33;;;;;;;3.50;2.07;;;12.40;99.90;;;;;;5032869;28;20192;-54
2022/11/15 10:03:33;;;;;;;2.77;2.00;;;12.30;99.90;;;;;;5037011;28;20203;-52
2022/11/15 10:06:05;;;;;;;4.20;2.20;;;12.60;99.90;;;;;;5035653;28;20226;-54
2022/11/15 10:08:43;;;;;;;3.47;1.77;;;12.40;99.90;;;;;;5031340;28;20272;-53
2022/11/15 10:11:14;;;;;;;1.97;1.87;;;12.30;99.90;;;;;;5034287;28;20317;-52
2022/11/15 10:14:10;;;;;;;4.70;1.73;;;12.30;99.90;;;;;;5035612;28;20237;-53
2022/11/15 10:16:48;;;;;;;2.47;1.67;;;12.50;99.90;;;;;;5029537;28;20767;-52
2022/11/15 10:19:22;;;;;;;5.07;1.70;;;12.50;99.90;;;;;;5033586;28;20196;-54
2022/11/15 10:22:17;;;;;;;3.37;1.50;;;12.50;99.90;;;;;;5031745;28;20679;-51
2022/11/15 10:24:45;;;;;;;6.40;3.57;;;12.30;99.90;;;;;;5037534;28;20686;-51
2022/11/15 10:27:15;;;;;;;3.77;1.60;;;12.20;99.90;;;;;;5032930;28;20676;-52
2022/11/15 10:29:47;;;;;;;3.83;1.67;;;12.20;99.90;;;;;;5032749;28;20199;-53
2022/11/15 10:32:16;;;;;;;2.37;1.43;;;12.10;99.90;;;;;;5034476;28;20206;-52
2022/11/15 10:34:44;;;;;;;3.93;1.57;;;12.10;99.90;;;;;;5036365;28;20206;-54
2022/11/15 10:37:11;;;;;;;5.07;1.20;;;12.00;99.90;;;;;;5034569;28;20293;-52
2022/11/15 10:39:38;;;;;;;4.37;1.10;;;12.00;99.90;;;;;;5034976;28;20208;-54
2022/11/15 10:42:24;;;;;;;1.33;1.20;;;12.00;99.90;;;;;;5035162;28;20248;-51
2022/11/15 10:44:51;;;;;;;4.00;1.70;;;12.20;99.90;;;;;;5035164;28;20210;-52
2022/11/15 10:47:32;;;;;;;2.60;1.00;;;12.30;99.90;;;;;;5035924;28;20521;-56
2022/11/15 10:50:24;;;;;;;1.57;1.10;;;12.30;99.90;;;;;;5035675;28;20557;-56
2022/11/15 10:52:51;;;;;;;2.73;1.00;;;12.20;99.90;;;;;;5029636;28;20292;-53
2022/11/15 10:55:23;;;;;;;2.07;1.10;;;12.20;99.90;;;;;;5032936;28;21239;-54
2022/11/15 10:57:54;;;;;;;2.80;1.43;;;12.30;99.90;;;;;;5032477;28;20279;-53
2022/11/15 11:00:20;;;;;;;2.47;1.00;;;12.40;99.90;;;;;;5028035;28;20286;-53
2022/11/15 11:03:20;;;;;;;3.73;1.10;;;12.40;99.90;;;;;;5032582;28;20365;-52
2022/11/15 11:05:47;;;;;;;4.20;1.00;;;12.50;99.90;;;;;;5038406;28;20212;-53
2022/11/15 11:08:14;;;;;;;1.57;0.90;;;12.70;99.90;;;;;;5028906;28;20357;-53
2022/11/15 11:10:53;;;;;;;3.60;0.90;;;12.70;99.90;;;;;;5031833;28;20221;-53
2022/11/15 11:13:28;;;;;;;4.30;1.13;;;12.80;99.90;;;;;;5033869;28;20202;-55
2022/11/15 11:16:13;;;;;;;2.90;0.80;;;13.00;99.90;;;;;;5031588;28;20262;-52
2022/11/15 11:18:43;;;;;;;5.63;1.07;;;13.20;99.90;;;;;;5035163;28;20224;-51
2022/11/15 11:21:14;;;;;;;2.50;0.70;;;13.40;99.90;;;;;;5030556;28;21314;-53
2022/11/15 11:24:14;;;;;;;1.67;0.67;;;13.40;99.90;;;;;;5032218;28;20198;-52
2022/11/15 11:27:19;;;;;;;1.50;0.60;;;13.30;99.90;;;;;;5030496;28;20194;-53
2022/11/15 11:30:16;;;;;;;2.00;0.90;;;13.50;99.90;;;;;;5053542;28;20194;-50
2022/11/15 11:33:14;;;;;;;2.80;0.83;;;13.60;99.90;;;;;;5038108;28;20685;-52
2022/11/15 11:36:18;;;;;;;3.77;0.97;;;13.50;99.90;;;;;;5035315;28;20193;-53
2022/11/15 11:39:17;;;;;;;2.80;0.80;;;13.70;99.90;;;;;;5033895;28;20288;-54
2022/11/15 11:42:00;;;;;;;3.57;0.57;;;13.80;99.90;;;;;;5039412;28;20208;-52
2022/11/15 11:44:29;;;;;;;2.20;0.97;;;13.90;99.90;;;;;;5032332;28;20287;-51
2022/11/15 11:47:07;;;;;;;4.30;0.70;;;14.10;99.90;;;;;;5037757;28;20204;-51
2022/11/15 11:49:36;;;;;;;4.23;0.90;;;13.80;99.90;;;;;;5038709;28;20212;-52
2022/11/15 11:52:09;;;;;;;3.00;0.87;;;13.90;99.90;;;;;;5036132;28;20244;-50
2022/11/15 11:55:22;;;;;;;2.30;0.80;;;13.70;99.90;;;;;;5038257;28;20767;-53
2022/11/15 11:58:10;;;;;;;2.97;0.90;;;13.70;99.90;;;;;;5041016;28;20228;-53
2022/11/15 12:00:55;;;;;;;4.10;0.90;;;13.70;99.90;;;;;;5035210;28;20199;-52
2022/11/15 12:03:45;;;;;;;3.93;1.00;;;13.60;99.90;;;;;;5035213;28;20664;-53
2022/11/15 12:06:51;;;;;;;4.03;0.80;;;13.70;99.90;;;;;;5030040;28;20204;-54
2022/11/15 12:09:20;;;;;;;4.33;1.23;;;13.90;99.90;;;;;;5043205;28;20727;-52
2022/11/15 12:12:07;;;;;;;3.63;1.10;;;14.00;99.90;;;;;;5031065;28;20566;-51
2022/11/15 12:14:48;;;;;;;3.10;0.90;;;14.00;99.90;;;;;;5033673;28;22426;-54
2022/11/15 12:17:19;;;;;;;2.40;0.57;;;14.10;99.90;;;;;;5034430;28;20682;-54
2022/11/15 12:19:46;;;;;;;4.80;1.10;;;14.10;99.90;;;;;;5030282;28;20205;-57
2022/11/15 12:22:38;;;;;;;2.97;1.17;;;14.00;99.90;;;;;;5037450;28;20293;-52
2022/11/15 12:25:22;;;;;;;3.37;0.93;;;14.10;99.90;;;;;;5034102;28;20201;-54
2022/11/15 12:28:11;;;;;;;4.10;0.90;;;14.20;99.90;;;;;;5031593;28;20210;-55
2022/11/15 12:31:16;;;;;;;2.60;0.80;;;14.10;99.90;;;;;;5030911;28;20222;-53
2022/11/15 12:33:48;;;;;;;3.93;1.17;;;14.10;99.90;;;;;;5027036;28;20225;-53
2022/11/15 12:36:20;;;;;;;7.07;1.00;;;14.30;99.90;;;;;;5033229;28;20282;-53
2022/11/15 12:39:02;;;;;;;2.80;0.83;;;14.20;99.90;;;;;;5031905;28;20217;-53
2022/11/15 12:41:35;;;;;;;4.57;1.00;;;14.20;99.90;;;;;;5032497;28;20291;-53
2022/11/15 12:44:03;;;;;;;3.33;1.47;;;13.90;99.90;;;;;;5031273;28;20200;-54
2022/11/15 12:46:30;;;;;;;1.73;0.60;;;14.10;99.90;;;;;;5035046;28;20201;-53
2022/11/15 12:49:19;;;;;;;3.37;1.03;;;13.80;99.90;;;;;;5034762;28;20839;-55
2022/11/15 12:51:49;;;;;;;1.80;0.83;;;13.70;99.90;;;;;;5032924;28;20327;-54
2022/11/15 12:54:22;;;;;;;3.40;0.83;;;13.60;99.90;;;;;;5037381;28;20768;-54
2022/11/15 12:57:07;;;;;;;2.70;0.80;;;13.60;99.90;;;;;;5033758;28;20216;-53
2022/11/15 13:00:02;;;;;;;1.63;0.73;;;13.50;99.90;;;;;;5031430;28;20200;-54
2022/11/15 13:02:35;;;;;;;1.67;0.80;;;13.40;99.90;;;;;;5034736;28;20266;-52
2022/11/15 13:05:20;;;;;;;3.67;0.77;;;13.40;99.90;;;;;;5033684;28;20285;-52
2022/11/15 13:07:46;;;;;;;1.60;0.70;;;13.40;99.90;;;;;;5032524;28;20320;-53
2022/11/15 13:10:13;;;;;;;2.43;0.80;;;13.40;99.90;;;;;;5033745;28;20224;-53
2022/11/15 13:12:46;;;;;;;1.23;0.53;;;13.40;99.90;;;;;;5028765;28;20214;-55
2022/11/15 13:15:13;;;;;;;1.20;0.80;;;13.30;99.90;;;;;;5031798;28;20214;-53
2022/11/15 13:17:47;;;;;;;3.60;0.77;;;13.30;99.90;;;;;;5025047;28;20246;-53